createdAt,value
2022-09-30T00:01:14.962Z,0.90
2022-09-30T00:03:43.640Z,0.90
2022-09-30T00:06:12.429Z,1.00
2022-09-30T00:08:41.072Z,1.10
2022-09-30T00:11:13.853Z,1.00
2022-09-30T00:13:42.225Z,0.90
2022-09-30T00:16:11.710Z,1.00
2022-09-30T00:18:40.288Z,1.00
2022-09-30T00:21:09.588Z,1.10
2022-09-30T00:23:39.025Z,1.00
2022-09-30T00:26:12.160Z,0.90
2022-09-30T00:28:40.684Z,0.90
2022-09-30T00:31:12.436Z,0.77
2022-09-30T00:33:40.683Z,0.90
2022-09-30T00:36:08.971Z,0.97
2022-09-30T00:38:36.886Z,0.90
2022-09-30T00:41:05.397Z,1.10
2022-09-30T00:43:43.687Z,0.93
2022-09-30T00:46:22.083Z,0.90
2022-09-30T00:48:54.122Z,1.07
2022-09-30T00:51:28.250Z,0.90
2022-09-30T00:53:58.975Z,1.00
2022-09-30T00:56:29.394Z,1.00
2022-09-30T00:59:06.924Z,0.90
2022-09-30T01:01:36.211Z,0.80
2022-09-30T01:04:07.918Z,1.00
2022-09-30T01:06:35.751Z,0.90
2022-09-30T01:09:04.087Z,0.83
2022-09-30T01:11:32.175Z,0.90
2022-09-30T01:14:06.399Z,1.00
2022-09-30T01:16:57.237Z,0.80
2022-09-30T01:19:38.466Z,0.80
2022-09-30T01:22:27.243Z,1.00
2022-09-30T01:25:21.430Z,0.90
2022-09-30T01:28:09.376Z,0.97
2022-09-30T01:30:55.605Z,1.00
2022-09-30T01:33:36.686Z,0.90
2022-09-30T01:36:26.572Z,1.00
2022-09-30T01:39:03.568Z,0.97
2022-09-30T01:41:42.356Z,0.93
2022-09-30T01:44:17.722Z,1.00
2022-09-30T01:46:53.185Z,0.90
2022-09-30T01:49:28.540Z,1.03
2022-09-30T01:52:02.704Z,1.13
2022-09-30T01:54:36.498Z,0.87
2022-09-30T01:57:08.735Z,1.07
2022-09-30T01:59:42.588Z,0.90
2022-09-30T02:02:18.082Z,1.20
2022-09-30T02:04:51.995Z,0.90
2022-09-30T02:07:25.162Z,0.90
2022-09-30T02:10:00.882Z,0.80
2022-09-30T02:12:35.497Z,0.90
2022-09-30T02:15:08.189Z,1.10
2022-09-30T02:17:43.259Z,1.10
2022-09-30T02:20:15.319Z,1.07
2022-09-30T02:22:50.648Z,0.80
2022-09-30T02:25:23.007Z,0.90
2022-09-30T02:27:55.306Z,0.97
2022-09-30T02:30:23.648Z,0.90
2022-09-30T02:32:57.692Z,0.80
2022-09-30T02:35:31.807Z,0.90
2022-09-30T02:38:05.794Z,1.10
2022-09-30T02:40:39.384Z,0.90
2022-09-30T02:43:08.272Z,0.80
2022-09-30T02:45:47.418Z,1.10
2022-09-30T02:48:27.651Z,0.80
2022-09-30T02:51:01.751Z,1.00
2022-09-30T02:53:36.917Z,0.90
2022-09-30T02:56:14.397Z,1.03
2022-09-30T02:58:43.603Z,0.80
2022-09-30T03:01:14.357Z,0.80
2022-09-30T03:03:46.987Z,0.90
2022-09-30T03:06:15.220Z,0.80
2022-09-30T03:08:43.356Z,1.00
2022-09-30T03:11:16.111Z,1.00
2022-09-30T03:14:10.787Z,0.80
2022-09-30T03:17:05.910Z,0.90
2022-09-30T03:19:49.802Z,1.00
2022-09-30T03:22:34.339Z,1.10
2022-09-30T03:25:17.004Z,1.10
2022-09-30T03:28:00.176Z,1.20
2022-09-30T03:30:28.797Z,1.00
2022-09-30T03:33:11.592Z,0.80
2022-09-30T03:35:50.266Z,0.90
2022-09-30T03:38:30.581Z,0.90
2022-09-30T03:41:03.967Z,1.10
2022-09-30T03:43:36.612Z,1.10
2022-09-30T03:46:11.974Z,1.13
2022-09-30T03:48:41.623Z,1.10
2022-09-30T03:51:11.315Z,1.00
2022-09-30T03:53:41.284Z,1.20
2022-09-30T03:56:09.702Z,1.10
2022-09-30T03:58:40.689Z,1.00
2022-09-30T04:01:09.227Z,1.00
2022-09-30T04:03:37.177Z,1.10
2022-09-30T04:06:05.446Z,0.93
2022-09-30T04:08:34.770Z,1.20
2022-09-30T04:11:02.669Z,1.10
2022-09-30T04:13:31.491Z,1.10
2022-09-30T04:15:59.435Z,1.20
2022-09-30T04:18:27.647Z,1.00
2022-09-30T04:20:55.579Z,1.00
2022-09-30T04:23:23.509Z,1.17
2022-09-30T04:25:56.502Z,1.30
2022-09-30T04:28:24.676Z,1.23
2022-09-30T04:30:52.965Z,1.17
2022-09-30T04:33:20.823Z,1.10
2022-09-30T04:35:48.796Z,1.20
2022-09-30T04:38:16.639Z,1.10
2022-09-30T04:40:44.631Z,1.20
2022-09-30T04:43:14.361Z,1.10
2022-09-30T04:45:44.326Z,1.27
2022-09-30T04:48:12.653Z,1.30
2022-09-30T04:50:40.715Z,1.30
2022-09-30T04:53:08.695Z,1.20
2022-09-30T04:55:36.817Z,1.17
2022-09-30T04:58:05.307Z,1.07
2022-09-30T05:00:34.667Z,1.20
2022-09-30T05:03:03.378Z,1.10
2022-09-30T05:05:32.031Z,1.13
2022-09-30T05:08:01.798Z,1.20
2022-09-30T05:10:29.965Z,1.20
2022-09-30T05:12:58.334Z,1.00
2022-09-30T05:15:26.783Z,1.30
2022-09-30T05:17:56.129Z,1.20
2022-09-30T05:20:24.050Z,1.40
2022-09-30T05:22:56.084Z,1.10
2022-09-30T05:25:24.632Z,1.40
2022-09-30T05:27:52.645Z,1.33
2022-09-30T05:30:20.927Z,1.33
2022-09-30T05:32:48.685Z,1.40
2022-09-30T05:35:18.192Z,1.60
2022-09-30T05:37:46.080Z,1.40
2022-09-30T05:40:13.962Z,1.40
2022-09-30T05:42:42.051Z,1.33
2022-09-30T05:45:10.333Z,1.60
2022-09-30T05:47:38.176Z,1.60
2022-09-30T05:50:06.756Z,1.60
2022-09-30T05:52:36.103Z,1.60
2022-09-30T05:55:04.171Z,1.40
2022-09-30T05:57:32.075Z,1.50
2022-09-30T06:00:00.003Z,1.60
2022-09-30T06:02:27.923Z,1.50
2022-09-30T06:04:55.938Z,1.77
2022-09-30T06:07:24.131Z,1.90
2022-09-30T06:09:53.545Z,2.00
2022-09-30T06:12:26.285Z,1.80
2022-09-30T06:14:54.267Z,1.70
2022-09-30T06:17:23.128Z,1.80
2022-09-30T06:19:51.095Z,2.00
2022-09-30T06:22:19.231Z,2.30
2022-09-30T06:24:50.369Z,1.90
2022-09-30T06:27:22.208Z,2.50
2022-09-30T06:29:50.714Z,2.37
2022-09-30T06:32:18.512Z,2.40
2022-09-30T06:34:46.585Z,2.50
2022-09-30T06:37:16.092Z,2.43
2022-09-30T06:39:43.970Z,2.57
2022-09-30T06:42:12.539Z,2.40
2022-09-30T06:44:52.025Z,2.40
2022-09-30T06:47:25.640Z,2.40
2022-09-30T06:49:58.642Z,2.17
2022-09-30T06:52:27.433Z,2.70
2022-09-30T06:54:57.474Z,2.50
2022-09-30T06:57:27.768Z,2.50
2022-09-30T06:59:57.082Z,2.50
2022-09-30T07:02:25.242Z,2.00
2022-09-30T07:04:53.107Z,2.50
2022-09-30T07:07:21.973Z,2.77
2022-09-30T07:09:49.957Z,2.33
2022-09-30T07:12:20.889Z,2.37
2022-09-30T07:14:49.564Z,2.60
2022-09-30T07:17:19.530Z,2.57
2022-09-30T07:19:47.332Z,2.43
2022-09-30T07:22:32.250Z,2.37
2022-09-30T07:25:01.319Z,2.80
2022-09-30T07:27:30.947Z,2.67
2022-09-30T07:30:24.507Z,2.50
2022-09-30T07:32:50.166Z,2.90
2022-09-30T07:35:19.293Z,2.40
2022-09-30T07:37:47.279Z,3.13
2022-09-30T07:40:15.480Z,3.00
2022-09-30T07:42:45.966Z,3.10
2022-09-30T07:45:19.344Z,3.10
2022-09-30T07:47:52.533Z,3.30
2022-09-30T07:50:22.851Z,3.17
2022-09-30T07:52:50.696Z,3.30
2022-09-30T07:55:18.610Z,3.10
2022-09-30T07:57:46.548Z,3.37
2022-09-30T08:00:40.597Z,3.03
2022-09-30T08:03:02.630Z,4.27
2022-09-30T08:05:32.166Z,4.20
2022-09-30T08:08:00.108Z,3.27
2022-09-30T08:10:27.979Z,3.87
2022-09-30T08:13:00.019Z,4.03
2022-09-30T08:15:29.906Z,3.77
2022-09-30T08:17:57.873Z,3.80
2022-09-30T08:20:25.987Z,4.10
2022-09-30T08:22:56.247Z,4.30
2022-09-30T08:25:24.282Z,4.40
2022-09-30T08:27:52.375Z,4.57
2022-09-30T08:30:20.504Z,4.90
2022-09-30T08:32:50.331Z,5.00
2022-09-30T08:35:18.335Z,4.40
2022-09-30T08:37:46.203Z,4.37
2022-09-30T08:40:22.572Z,4.43
2022-09-30T08:43:09.779Z,4.67
2022-09-30T08:45:46.771Z,3.67
2022-09-30T08:48:30.671Z,4.03
2022-09-30T08:51:09.175Z,4.37
2022-09-30T08:53:41.229Z,4.30
2022-09-30T08:56:18.742Z,3.23
2022-09-30T08:58:48.346Z,3.97
2022-09-30T09:01:21.012Z,3.93
2022-09-30T09:03:49.020Z,4.00
2022-09-30T09:06:24.387Z,3.40
2022-09-30T09:09:12.400Z,3.50
2022-09-30T09:11:54.641Z,3.43
2022-09-30T09:14:36.691Z,3.07
2022-09-30T09:17:19.515Z,3.70
2022-09-30T09:19:51.988Z,3.60
2022-09-30T09:22:24.646Z,2.87
2022-09-30T09:24:53.711Z,3.27
2022-09-30T09:27:27.575Z,3.80
2022-09-30T09:30:06.677Z,3.30
2022-09-30T09:32:37.521Z,3.50
2022-09-30T09:35:15.686Z,3.67
2022-09-30T09:38:15.014Z,3.90
2022-09-30T09:40:58.206Z,3.40
2022-09-30T09:43:43.716Z,3.50
2022-09-30T09:46:22.311Z,3.53
2022-09-30T09:48:51.061Z,3.47
2022-09-30T09:51:27.681Z,3.87
2022-09-30T09:53:58.209Z,3.60
2022-09-30T09:56:32.513Z,3.40
2022-09-30T09:59:19.291Z,3.83
2022-09-30T10:01:50.347Z,3.63
2022-09-30T10:04:21.995Z,3.80
2022-09-30T10:06:56.032Z,3.30
2022-09-30T10:09:27.177Z,3.60
2022-09-30T10:12:39.499Z,3.70
2022-09-30T10:15:22.838Z,3.60
2022-09-30T10:17:56.631Z,3.00
2022-09-30T10:20:29.540Z,3.63
2022-09-30T10:23:09.945Z,3.47
2022-09-30T10:25:38.539Z,3.50
2022-09-30T10:28:23.705Z,3.73
2022-09-30T10:30:57.488Z,3.60
2022-09-30T10:33:31.046Z,3.27
2022-09-30T10:36:11.194Z,3.07
2022-09-30T10:38:48.108Z,3.63
2022-09-30T10:41:24.589Z,4.20
2022-09-30T10:43:54.656Z,3.83
2022-09-30T10:46:27.928Z,3.00
2022-09-30T10:48:58.127Z,3.00
2022-09-30T10:51:30.215Z,3.23
2022-09-30T10:53:59.000Z,3.27
2022-09-30T10:56:40.359Z,3.97
2022-09-30T10:59:16.783Z,3.53
2022-09-30T11:01:53.877Z,4.40
2022-09-30T11:04:32.767Z,4.07
2022-09-30T11:07:11.576Z,3.77
2022-09-30T11:09:47.356Z,3.90
2022-09-30T11:12:21.367Z,3.47
2022-09-30T11:14:59.068Z,2.77
2022-09-30T11:17:38.561Z,3.50
2022-09-30T11:20:20.027Z,3.27
2022-09-30T11:22:54.162Z,3.47
2022-09-30T11:25:29.393Z,2.80
2022-09-30T11:28:22.165Z,3.00
2022-09-30T11:31:02.803Z,3.37
2022-09-30T11:33:44.955Z,3.27
2022-09-30T11:36:25.708Z,3.30
2022-09-30T11:39:25.303Z,3.40
2022-09-30T11:41:59.646Z,3.60
2022-09-30T11:44:34.182Z,3.50
2022-09-30T11:47:14.907Z,3.27
2022-09-30T11:50:02.346Z,3.33
2022-09-30T11:52:40.681Z,3.40
2022-09-30T11:55:38.288Z,3.17
2022-09-30T11:58:36.296Z,3.13
2022-09-30T12:01:10.802Z,3.10
2022-09-30T12:03:43.468Z,3.03
2022-09-30T12:06:19.630Z,3.20
2022-09-30T12:08:53.028Z,3.13
2022-09-30T12:11:24.719Z,2.70
2022-09-30T12:13:56.704Z,3.53
2022-09-30T12:16:28.593Z,3.07
2022-09-30T12:19:02.130Z,3.07
2022-09-30T12:21:38.203Z,3.47
2022-09-30T12:24:16.575Z,3.50
2022-09-30T12:26:46.106Z,4.17
2022-09-30T12:29:36.782Z,3.60
2022-09-30T12:32:24.780Z,3.27
2022-09-30T12:35:04.399Z,3.50
2022-09-30T12:37:50.892Z,3.40
2022-09-30T12:40:52.423Z,3.63
2022-09-30T12:43:59.917Z,3.70
2022-09-30T12:46:50.113Z,3.50
2022-09-30T12:49:23.108Z,3.57
2022-09-30T12:51:54.500Z,4.23
2022-09-30T12:54:28.551Z,4.57
2022-09-30T12:57:00.896Z,4.07
2022-09-30T12:59:32.835Z,4.33
2022-09-30T13:02:03.850Z,5.00
2022-09-30T13:04:37.449Z,4.73
2022-09-30T13:07:14.530Z,5.50
2022-09-30T13:12:46.723Z,4.63
2022-09-30T13:15:38.811Z,5.37
2022-09-30T13:18:45.208Z,4.73
2022-09-30T13:21:22.532Z,5.13
2022-09-30T13:23:51.527Z,4.80
2022-09-30T13:27:07.492Z,5.10
2022-09-30T13:29:39.969Z,5.10
2022-09-30T13:32:10.542Z,5.50
2022-09-30T13:35:20.820Z,4.87
2022-09-30T13:38:16.964Z,5.30
2022-09-30T13:41:01.672Z,4.50
2022-09-30T13:43:43.699Z,4.93
2022-09-30T13:46:24.029Z,4.50
2022-09-30T13:48:58.730Z,4.47
2022-09-30T13:51:31.962Z,4.13
2022-09-30T13:54:08.385Z,4.13
2022-09-30T13:56:40.846Z,3.87
2022-09-30T13:59:44.098Z,3.23
2022-09-30T14:02:40.623Z,2.83
2022-09-30T14:05:40.291Z,2.80
2022-09-30T14:08:32.405Z,3.00
2022-09-30T14:11:21.410Z,3.07
2022-09-30T14:14:03.225Z,3.20
2022-09-30T14:17:05.467Z,2.87
2022-09-30T14:20:03.069Z,2.40
2022-09-30T14:22:31.345Z,2.90
2022-09-30T14:24:59.562Z,2.70
2022-09-30T14:27:50.989Z,2.80
2022-09-30T14:30:21.778Z,2.67
2022-09-30T14:32:52.159Z,2.80
2022-09-30T14:35:24.247Z,2.90
2022-09-30T14:37:54.504Z,2.70
2022-09-30T14:40:29.212Z,2.70
2022-09-30T14:43:02.932Z,2.60
2022-09-30T14:45:34.263Z,2.20
2022-09-30T14:48:07.082Z,2.03
2022-09-30T14:50:47.241Z,2.50
2022-09-30T14:53:29.876Z,2.10
2022-09-30T14:55:58.376Z,2.10
2022-09-30T14:58:29.237Z,2.47
2022-09-30T15:01:04.885Z,2.50
2022-09-30T15:03:36.307Z,2.30
2022-09-30T15:06:06.514Z,2.40
2022-09-30T15:08:34.562Z,2.10
2022-09-30T15:11:02.726Z,2.30
2022-09-30T15:13:32.335Z,3.10
2022-09-30T15:16:00.473Z,3.00
2022-09-30T15:18:33.829Z,2.80
2022-09-30T15:21:10.057Z,2.80
2022-09-30T15:23:41.384Z,2.70
2022-09-30T15:26:13.018Z,2.90
2022-09-30T15:28:41.073Z,3.30
2022-09-30T15:31:19.991Z,3.10
2022-09-30T15:33:48.166Z,3.10
2022-09-30T15:36:19.949Z,3.17
2022-09-30T15:38:51.248Z,2.97
2022-09-30T15:41:19.354Z,2.97
2022-09-30T15:43:51.682Z,2.90
2022-09-30T15:46:28.172Z,2.90
2022-09-30T15:48:58.666Z,2.77
2022-09-30T15:51:39.154Z,2.73
2022-09-30T15:54:31.995Z,2.40
2022-09-30T15:57:03.258Z,2.47
2022-09-30T15:59:58.223Z,2.07
2022-09-30T16:02:26.435Z,2.37
2022-09-30T16:04:54.589Z,2.50
2022-09-30T16:07:26.825Z,2.80
2022-09-30T16:09:56.929Z,2.43
2022-09-30T16:12:28.861Z,2.10
2022-09-30T16:15:01.237Z,2.10
2022-09-30T16:17:32.444Z,2.87
2022-09-30T16:20:02.805Z,1.90
2022-09-30T16:22:49.276Z,2.00
2022-09-30T16:25:21.519Z,1.90
2022-09-30T16:27:51.020Z,2.10
2022-09-30T16:30:20.912Z,2.00
2022-09-30T16:32:51.677Z,2.00
2022-09-30T16:35:22.476Z,2.30
2022-09-30T16:37:58.709Z,2.30
2022-09-30T16:40:28.780Z,2.10
2022-09-30T16:42:58.710Z,1.90
2022-09-30T16:45:28.280Z,1.90
2022-09-30T16:47:58.109Z,1.90
2022-09-30T16:50:32.534Z,2.00
2022-09-30T16:53:01.950Z,2.00
2022-09-30T16:55:30.376Z,2.03
2022-09-30T16:57:59.485Z,2.60
2022-09-30T17:00:28.377Z,1.90
2022-09-30T17:02:56.463Z,1.90
2022-09-30T17:05:25.660Z,2.03
2022-09-30T17:07:56.168Z,1.67
2022-09-30T17:10:29.049Z,1.80
2022-09-30T17:12:57.605Z,1.60
2022-09-30T17:15:25.553Z,1.80
2022-09-30T17:17:53.915Z,1.80
2022-09-30T17:20:23.416Z,1.90
2022-09-30T17:22:52.013Z,1.60
2022-09-30T17:25:20.399Z,1.67
2022-09-30T17:27:51.044Z,1.60
2022-09-30T17:30:19.891Z,1.60
2022-09-30T17:32:48.645Z,1.63
2022-09-30T17:35:16.836Z,1.67
2022-09-30T17:37:46.532Z,1.90
2022-09-30T17:40:31.716Z,1.90
2022-09-30T17:43:11.616Z,1.70
2022-09-30T17:45:40.920Z,1.80
2022-09-30T17:48:09.451Z,1.70
2022-09-30T17:50:37.728Z,1.90
2022-09-30T17:53:07.853Z,1.70
2022-09-30T17:55:36.220Z,1.90
2022-09-30T17:58:05.523Z,1.80
2022-09-30T18:00:33.661Z,1.90
2022-09-30T18:03:02.879Z,1.87
2022-09-30T18:05:30.856Z,1.80
2022-09-30T18:07:58.857Z,1.90
2022-09-30T18:10:27.576Z,2.03
2022-09-30T18:12:56.299Z,1.90
2022-09-30T18:15:26.275Z,1.90
2022-09-30T18:17:54.186Z,2.00
2022-09-30T18:20:24.896Z,1.90
2022-09-30T18:22:53.629Z,1.90
2022-09-30T18:25:21.547Z,1.80
2022-09-30T18:27:50.544Z,1.83
2022-09-30T18:30:21.107Z,1.80
2022-09-30T18:32:51.386Z,1.77
2022-09-30T18:35:21.329Z,1.83
2022-09-30T18:37:50.360Z,2.00
2022-09-30T18:40:18.798Z,2.00
2022-09-30T18:42:47.086Z,1.70
2022-09-30T18:45:15.009Z,2.03
2022-09-30T18:47:44.867Z,2.30
2022-09-30T18:50:18.019Z,2.50
2022-09-30T18:52:45.895Z,2.30
2022-09-30T18:55:13.794Z,2.40
2022-09-30T18:57:41.746Z,2.13
2022-09-30T19:00:11.541Z,2.67
2022-09-30T19:02:40.798Z,2.50
2022-09-30T19:05:09.885Z,2.43
2022-09-30T19:07:39.916Z,2.30
2022-09-30T19:10:09.955Z,2.10
2022-09-30T19:12:39.290Z,2.20
2022-09-30T19:15:09.708Z,2.67
2022-09-30T19:17:38.174Z,2.70
2022-09-30T19:20:07.377Z,2.53
2022-09-30T19:22:37.047Z,2.60
2022-09-30T19:25:06.967Z,2.50
2022-09-30T19:27:36.059Z,2.50
2022-09-30T19:30:04.381Z,2.50
2022-09-30T19:32:34.543Z,3.00
2022-09-30T19:35:06.355Z,2.97
2022-09-30T19:37:35.040Z,3.40
2022-09-30T19:40:17.651Z,2.90
2022-09-30T19:42:50.712Z,3.40
2022-09-30T19:45:22.949Z,3.03
2022-09-30T19:47:53.092Z,2.87
2022-09-30T19:50:20.963Z,3.00
2022-09-30T19:52:56.762Z,3.20
2022-09-30T19:55:25.761Z,3.20
2022-09-30T19:57:55.304Z,2.90
2022-09-30T20:00:23.251Z,3.63
2022-09-30T20:02:52.753Z,3.00
2022-09-30T20:05:20.704Z,2.90
2022-09-30T20:07:51.156Z,3.50
2022-09-30T20:10:19.925Z,3.10
2022-09-30T20:12:47.855Z,3.53
2022-09-30T20:15:35.064Z,4.10
2022-09-30T20:18:03.029Z,3.50
2022-09-30T20:20:37.245Z,3.07
2022-09-30T20:23:05.450Z,3.30
2022-09-30T20:25:35.268Z,3.30
2022-09-30T20:28:04.388Z,3.60
2022-09-30T20:30:34.352Z,3.30
2022-09-30T20:33:02.636Z,4.20
2022-09-30T20:35:30.516Z,3.50
2022-09-30T20:37:58.482Z,4.23
2022-09-30T20:40:26.760Z,4.17
2022-09-30T20:42:59.293Z,4.27
2022-09-30T20:45:29.289Z,4.07
2022-09-30T20:47:59.129Z,3.90
2022-09-30T20:50:36.743Z,4.00
2022-09-30T20:53:07.457Z,4.20
2022-09-30T20:55:38.172Z,3.50
2022-09-30T20:58:07.523Z,3.77
2022-09-30T21:00:37.938Z,4.07
2022-09-30T21:03:09.334Z,3.60
2022-09-30T21:05:38.454Z,3.60
2022-09-30T21:08:07.307Z,4.50
2022-09-30T21:10:38.753Z,3.87
2022-09-30T21:13:11.496Z,3.47
2022-09-30T21:15:40.371Z,3.60
2022-09-30T21:18:10.515Z,3.40
2022-09-30T21:20:38.479Z,3.47
2022-09-30T21:23:06.475Z,3.73
2022-09-30T21:25:35.050Z,4.10
2022-09-30T21:28:04.663Z,3.30
2022-09-30T21:30:32.579Z,3.23
2022-09-30T21:33:00.525Z,3.07
2022-09-30T21:35:29.787Z,3.80
2022-09-30T21:37:57.701Z,3.37
2022-09-30T21:40:25.765Z,3.60
2022-09-30T21:42:53.701Z,3.50
2022-09-30T21:45:21.609Z,3.73
2022-09-30T21:47:49.859Z,3.73
2022-09-30T21:50:18.015Z,3.20
2022-09-30T21:52:47.509Z,4.20
2022-09-30T21:55:15.492Z,3.80
2022-09-30T21:57:45.833Z,3.47
2022-09-30T22:00:14.168Z,3.40
2022-09-30T22:02:42.116Z,4.23
2022-09-30T22:05:10.836Z,3.90
2022-09-30T22:07:39.216Z,3.93
2022-09-30T22:10:09.648Z,3.60
2022-09-30T22:12:37.635Z,4.10
2022-09-30T22:15:06.117Z,4.10
2022-09-30T22:17:34.070Z,3.67
2022-09-30T22:20:02.367Z,3.60
2022-09-30T22:22:30.261Z,4.13
2022-09-30T22:24:58.109Z,3.83
2022-09-30T22:27:27.391Z,4.10
2022-09-30T22:29:55.351Z,4.53
2022-09-30T22:32:23.291Z,3.80
2022-09-30T22:35:13.829Z,4.17
2022-09-30T22:38:01.363Z,3.80
2022-09-30T22:40:29.349Z,3.50
2022-09-30T22:42:58.715Z,3.47
2022-09-30T22:45:26.851Z,4.60
2022-09-30T22:47:55.373Z,3.73
2022-09-30T22:50:25.131Z,4.43
2022-09-30T22:52:52.967Z,3.80
2022-09-30T22:55:21.072Z,3.90
2022-09-30T22:57:48.957Z,3.70
2022-09-30T23:00:18.432Z,3.80
2022-09-30T23:02:46.345Z,3.73
2022-09-30T23:05:15.430Z,3.37
2022-09-30T23:07:43.362Z,4.30
2022-09-30T23:10:11.461Z,3.80
2022-09-30T23:12:39.382Z,3.60
2022-09-30T23:15:08.556Z,3.20
2022-09-30T23:17:38.498Z,3.50
2022-09-30T23:20:07.335Z,3.03
2022-09-30T23:22:35.219Z,3.13
2022-09-30T23:25:03.157Z,3.43
2022-09-30T23:27:32.298Z,4.03
2022-09-30T23:30:00.223Z,3.87
2022-09-30T23:32:28.112Z,4.10
2022-09-30T23:34:57.382Z,4.03
2022-09-30T23:37:25.375Z,3.60
2022-09-30T23:39:53.284Z,3.47
2022-09-30T23:42:21.220Z,3.60
2022-09-30T23:44:49.117Z,3.10
2022-09-30T23:47:19.587Z,3.20
2022-09-30T23:49:47.483Z,3.43
2022-09-30T23:52:17.565Z,4.10
2022-09-30T23:54:45.709Z,3.50
2022-09-30T23:57:13.674Z,3.60
2022-09-30T23:59:41.613Z,4.30
